Time;durP1;ratioP1;P1;durP2;ratioP2;P2;SDS_P1;SDS_P2;PMS_P1;PMS_P2;Temp;Humidity;BMP_temperature;BMP_pressure;BME280_temperature;BME280_humidity;BME280_pressure;Samples;Min_cycle;Max_cycle;Signal;HPM_P1;HPM_P2
2023/07/05 00:03:24;;;;;;;15.90;8.00;;;;;;;18.15;70.42;98668.77;225909;1280;25405;-73
2023/07/05 00:08:55;;;;;;;15.20;8.00;;;;;;;18.07;70.58;98667.55;226066;1280;22614;-73
2023/07/05 00:14:59;;;;;;;13.90;8.30;;;;;;;17.99;70.78;98670.28;225908;1280;22671;-73
2023/07/05 00:21:17;;;;;;;13.10;7.10;;;;;;;17.89;71.17;98666.83;225858;1280;24256;-73
2023/07/05 00:27:25;;;;;;;;;;;;;;;;;;;;;
2023/07/05 00:39:29;;;;;;;9.30;6.60;;;;;;;17.77;71.78;98660.34;225690;1280;22636;-73
2023/07/05 00:46:19;;;;;;;12.20;7.20;;;;;;;17.78;71.91;98657.00;225859;1280;24208;-73
2023/07/05 01:04:30;;;;;;;12.90;6.80;;;;;;;17.82;72.33;98650.48;225885;1280;22630;-73
2023/07/05 01:18:06;;;;;;;;;;;;;;;;;;;;;
2023/07/05 01:24:44;;;;;;;10.00;7.10;;;;;;;17.69;73.20;98635.95;225819;1280;22537;-73
2023/07/05 01:38:23;;;;;;;;;;;;;;;;;;;;;
2023/07/05 02:04:51;;;;;;;;;;;;;;;;;;;;;
2023/07/05 02:16:38;;;;;;;;;;;;;;;;;;;;;
2023/07/05 02:23:05;;;;;;;18.30;10.20;;;;;;;16.65;75.47;98628.38;225804;1280;22553;-74
2023/07/05 02:29:29;;;;;;;18.10;8.70;;;;;;;16.51;75.81;98629.14;225729;1280;22555;-73
2023/07/05 02:36:02;;;;;;;17.10;9.20;;;;;;;16.42;75.85;98630.58;225973;1280;22540;-73
2023/07/05 02:55:42;;;;;;;;;;;;;;;;;;;;;
2023/07/05 03:02:20;;;;;;;;;;;;;;;;;;;;;
2023/07/05 03:08:48;;;;;;;16.60;9.10;;;;;;;16.12;76.94;98651.17;225858;1276;22539;-73
2023/07/05 03:15:25;;;;;;;13.60;9.00;;;;;;;16.12;77.20;98651.36;225912;1280;22567;-73
2023/07/05 03:20:48;;;;;;;11.70;9.10;;;;;;;16.17;77.41;98644.56;225886;1280;22544;-74
2023/07/05 03:26:44;;;;;;;15.60;9.60;;;;;;;16.32;77.45;98649.52;225636;1280;22521;-73
2023/07/05 03:32:58;;;;;;;13.30;8.70;;;;;;;16.71;77.23;98645.64;225484;1280;22548;-74
2023/07/05 03:39:34;;;;;;;12.50;9.20;;;;;;;17.17;76.82;98649.27;225530;1280;22549;-74
2023/07/05 03:45:48;;;;;;;12.30;8.80;;;;;;;17.65;76.02;98641.75;225468;1280;22554;-74
2023/07/05 03:51:57;;;;;;;;;;;;;;;;;;;;;
2023/07/05 03:58:24;;;;;;;12.30;8.50;;;;;;;18.47;74.53;98631.09;225676;1280;22643;-73
2023/07/05 04:17:06;;;;;;;;;;;;;;;;;;;;;
2023/07/05 04:24:10;;;;;;;15.00;9.60;;;;;;;18.76;74.35;98637.50;225786;1281;22523;-74
2023/07/05 04:30:05;;;;;;;;;;;;;;;;;;;;;
2023/07/05 04:36:32;;;;;;;12.70;8.80;;;;;;;18.76;74.14;98643.14;225795;1280;22603;-73
2023/07/05 04:42:19;;;;;;;15.40;9.40;;;;;;;18.66;74.24;98647.31;225704;1281;22557;-74
2023/07/05 04:47:51;;;;;;;13.60;9.50;;;;;;;18.62;74.82;98642.21;225685;1281;24244;-74
2023/07/05 04:54:06;;;;;;;;;;;;;;;;;;;;;
2023/07/05 04:59:43;;;;;;;13.40;10.30;;;;;;;18.75;75.74;98637.39;225747;1280;22548;-74
2023/07/05 05:05:08;;;;;;;13.70;10.60;;;;;;;18.83;75.93;98638.90;225790;1280;22557;-73
2023/07/05 05:10:43;;;;;;;14.40;11.00;;;;;;;18.96;76.01;98636.48;225841;1281;22540;-73
2023/07/05 05:15:56;;;;;;;14.20;10.80;;;;;;;19.12;76.06;98642.97;225914;1278;22544;-73
2023/07/05 05:21:14;;;;;;;;;;;;;;;;;;;;;
2023/07/05 05:26:28;;;;;;;12.90;9.40;;;;;;;19.38;75.87;98639.73;225876;1280;22567;-73
2023/07/05 05:31:56;;;;;;;14.70;9.30;;;;;;;19.57;75.86;98634.21;225891;1280;22557;-74
2023/07/05 05:37:32;;;;;;;13.80;8.80;;;;;;;19.79;75.34;98634.33;225845;1280;22525;-73
2023/07/05 05:43:18;;;;;;;;;;;;;;;;;;;;;
2023/07/05 05:48:29;;;;;;;13.80;7.70;;;;;;;20.32;73.93;98644.11;225794;1280;23045;-73
2023/07/05 05:53:40;;;;;;;11.90;6.80;;;;;;;20.52;72.72;98642.70;225501;1263;22532;-73
2023/07/05 05:59:09;;;;;;;14.60;7.70;;;;;;;20.74;72.28;98634.81;225492;1264;22668;-75
2023/07/05 06:04:41;;;;;;;;;;;;;;;20.97;72.14;98637.57;225231;1269;22990;-73
2023/07/05 06:09:46;;;;;;;14.20;7.80;;;;;;;21.20;71.92;98637.13;225446;1264;22548;-73
2023/07/05 06:15:35;;;;;;;12.30;7.70;;;;;;;21.43;71.53;98644.58;225461;1263;138105;-72
2023/07/05 06:21:00;;;;;;;12.50;6.90;;;;;;;21.64;70.82;98633.10;225189;1277;162274;-73
2023/07/05 06:26:29;;;;;;;11.50;7.30;;;;;;;21.84;70.32;98631.30;225211;1263;139016;-73
2023/07/05 06:32:34;;;;;;;;;;;;;;;;;;;;;
2023/07/05 06:38:18;;;;;;;;;;;;;;;;;;;;;
2023/07/05 06:44:21;;;;;;;9.30;5.90;;;;;;;22.53;68.35;98623.02;225204;1257;138206;-73
2023/07/05 06:49:45;;;;;;;13.10;6.50;;;;;;;22.72;67.20;98625.67;225127;1270;137498;-73
2023/07/05 06:54:51;;;;;;;10.00;6.60;;;;;;;22.93;66.89;98622.55;225066;1267;137687;-74
2023/07/05 07:00:04;;;;;;;;;;;;;;;;;;;;;
2023/07/05 07:05:44;;;;;;;10.70;6.40;;;;;;;23.38;66.52;98622.34;225077;1278;137554;-73
2023/07/05 07:10:48;;;;;;;9.90;7.50;;;;;;;23.56;65.61;98611.02;225089;1267;137586;-73
2023/07/05 07:16:31;;;;;;;10.20;7.20;;;;;;;23.75;65.79;98601.77;225012;1280;137390;-74
2023/07/05 07:21:37;;;;;;;9.70;6.90;;;;;;;24.00;65.25;98599.73;225326;1269;22609;-73
2023/07/05 07:26:39;;;;;;;9.90;6.90;;;;;;;24.19;64.62;98591.89;225325;1259;137062;-74
2023/07/05 07:31:44;;;;;;;11.00;7.60;;;;;;;24.39;64.30;98588.35;225330;1262;137494;-74
2023/07/05 07:37:01;;;;;;;9.20;7.40;;;;;;;24.59;63.87;98590.40;225260;1273;137600;-75
2023/07/05 07:42:33;;;;;;;10.80;6.90;;;;;;;24.85;63.83;98590.64;225095;1257;137431;-74
2023/07/05 07:47:35;;;;;;;10.30;7.50;;;;;;;25.14;63.29;98590.86;225206;1275;137588;-74
2023/07/05 07:52:38;;;;;;;8.40;7.60;;;;;;;25.33;62.71;98595.61;224983;1270;137602;-74
2023/07/05 07:57:48;;;;;;;11.20;8.80;;;;;;;25.57;62.50;98591.29;224909;1273;22579;-74
2023/07/05 08:02:50;;;;;;;8.20;7.30;;;;;;;25.82;61.97;98590.84;224795;1280;137345;-73
2023/07/05 08:08:02;;;;;;;9.80;7.60;;;;;;;26.06;61.50;98584.87;224823;1280;137523;-74
2023/07/05 08:13:07;;;;;;;8.00;7.20;;;;;;;26.27;60.90;98578.27;225083;1278;137546;-73
2023/07/05 08:18:10;;;;;;;7.90;6.30;;;;;;;26.49;60.41;98579.30;225161;1267;137419;-73
2023/07/05 08:23:21;;;;;;;8.60;6.50;;;;;;;26.65;59.24;98580.16;225019;1259;137414;-73
2023/07/05 08:28:33;;;;;;;8.50;6.20;;;;;;;26.84;59.15;98576.02;225231;1276;137524;-73
2023/07/05 08:33:45;;;;;;;7.10;6.40;;;;;;;27.02;58.68;98578.82;225159;1273;22636;-73
2023/07/05 08:38:49;;;;;;;10.00;6.70;;;;;;;27.26;58.52;98577.20;225269;1279;137277;-72
2023/07/05 08:44:02;;;;;;;8.50;6.40;;;;;;;27.49;58.08;98576.81;225084;1276;137646;-74
2023/07/05 08:49:15;;;;;;;7.80;7.00;;;;;;;27.70;57.53;98574.02;225057;1277;137384;-73
2023/07/05 08:54:19;;;;;;;6.40;5.70;;;;;;;27.83;56.30;98571.61;225426;1273;137393;-74
2023/07/05 08:59:51;;;;;;;6.50;5.90;;;;;;;27.91;55.45;98574.17;225241;1267;137683;-74
2023/07/05 09:04:57;;;;;;;6.90;6.10;;;;;;;28.07;55.59;98567.61;225148;1265;137482;-75
2023/07/05 09:10:18;;;;;;;7.30;5.60;;;;;;;28.29;55.38;98564.44;225235;1272;22544;-75
2023/07/05 09:15:24;;;;;;;7.10;5.90;;;;;;;28.45;54.27;98559.09;225244;1259;22578;-73
2023/07/05 09:20:29;;;;;;;8.60;5.50;;;;;;;28.64;54.13;98552.09;225181;1276;26369;-73
2023/07/05 09:25:34;;;;;;;8.10;5.20;;;;;;;28.82;53.63;98550.00;225258;1265;22533;-73
2023/07/05 09:30:58;;;;;;;6.20;5.30;;;;;;;29.08;53.36;98544.35;225418;1277;22579;-73
2023/07/05 09:36:12;;;;;;;6.30;5.40;;;;;;;29.32;52.53;98547.54;225268;1259;22548;-73
2023/07/05 09:41:28;;;;;;;6.20;4.90;;;;;;;29.72;52.55;98539.43;225328;1274;22600;-73
2023/07/05 09:46:34;;;;;;;6.60;5.70;;;;;;;29.72;50.51;98540.58;225427;1258;22523;-73
2023/07/05 09:51:41;;;;;;;6.50;4.40;;;;;;;29.69;50.46;98539.88;225392;1259;22713;-73
2023/07/05 09:57:01;;;;;;;7.30;6.00;;;;;;;29.91;49.78;98537.81;225316;1265;23103;-74
2023/07/05 10:02:12;;;;;;;6.10;5.50;;;;;;;30.14;49.12;98532.27;225366;1269;22544;-73
2023/07/05 10:07:30;;;;;;;5.80;4.70;;;;;;;30.50;49.52;98528.51;225527;1262;22566;-74
2023/07/05 10:12:33;;;;;;;;;;;;;;;30.80;48.75;98523.70;225338;1262;22641;-74
2023/07/05 10:17:46;;;;;;;5.60;4.60;;;;;;;30.83;48.07;98521.70;225456;1260;22540;-76
2023/07/05 10:23:01;;;;;;;5.30;4.80;;;;;;;30.70;48.15;98527.89;225452;1273;23131;-75
2023/07/05 10:28:05;;;;;;;7.50;4.70;;;;;;;30.76;47.64;98525.04;225171;1263;22536;-74
2023/07/05 10:33:21;;;;;;;4.70;4.10;;;;;;;30.75;46.97;98514.84;225297;1259;22565;-73
2023/07/05 10:38:26;;;;;;;5.50;4.50;;;;;;;30.70;47.13;98510.34;225446;1274;22550;-73
2023/07/05 10:43:32;;;;;;;5.90;4.60;;;;;;;30.61;46.78;98511.13;225224;1257;22566;-72
2023/07/05 10:48:40;;;;;;;5.50;4.90;;;;;;;30.46;46.92;98510.09;225208;1273;22619;-71
2023/07/05 10:53:48;;;;;;;5.30;4.10;;;;;;;30.17;46.46;98506.71;225301;1275;22546;-71
2023/07/05 10:59:07;;;;;;;5.30;4.90;;;;;;;29.99;47.25;98505.44;225278;1270;22695;-71
2023/07/05 11:04:14;;;;;;;9.40;4.80;;;;;;;30.12;47.70;98498.04;225216;1276;22584;-71
2023/07/05 11:09:17;;;;;;;8.80;4.80;;;;;;;30.38;47.41;98499.17;225006;1262;22555;-71
2023/07/05 11:14:21;;;;;;;6.90;4.80;;;;;;;30.62;47.31;98503.55;225180;1262;22558;-71
2023/07/05 11:19:29;;;;;;;4.20;3.80;;;;;;;30.84;48.18;98508.12;225080;1261;22528;-71
2023/07/05 11:24:31;;;;;;;12.00;10.80;;;;;;;30.78;47.40;98500.92;225359;1257;22658;-71
2023/07/05 11:29:33;;;;;;;7.20;4.90;;;;;;;30.46;47.17;98496.39;225547;1265;22547;-72
2023/07/05 11:34:44;;;;;;;5.30;4.80;;;;;;;30.01;46.96;98490.85;225479;1273;22566;-71
2023/07/05 11:39:49;;;;;;;11.10;4.90;;;;;;;29.82;48.02;98480.51;225519;1275;22583;-72
2023/07/05 11:45:21;;;;;;;6.10;4.00;;;;;;;29.97;48.45;98470.24;225445;1273;22557;-71
2023/07/05 11:50:27;;;;;;;4.40;3.80;;;;;;;30.15;47.69;98461.23;225438;1261;22524;-72
2023/07/05 11:55:33;;;;;;;7.80;4.60;;;;;;;30.10;46.76;98448.91;225466;1273;22614;-72
2023/07/05 12:00:43;;;;;;;4.70;4.00;;;;;;;30.11;46.66;98439.91;225354;1269;22520;-71
2023/07/05 12:06:13;;;;;;;6.60;4.40;;;;;;;30.14;46.38;98434.66;225365;1265;22533;-72
2023/07/05 12:11:30;;;;;;;6.50;4.00;;;;;;;30.24;46.08;98430.64;225383;1258;22540;-72
2023/07/05 12:16:32;;;;;;;5.20;4.00;;;;;;;30.71;46.32;98415.21;225501;1275;22972;-72
2023/07/05 12:21:35;;;;;;;5.40;4.50;;;;;;;31.15;45.81;98400.41;225236;1276;25271;-72
2023/07/05 12:26:39;;;;;;;7.30;4.30;;;;;;;31.26;45.31;98387.98;225407;1262;22539;-71
2023/07/05 12:31:43;;;;;;;4.50;4.10;;;;;;;31.20;44.49;98372.68;225344;1265;24938;-71
2023/07/05 12:36:45;;;;;;;5.40;3.80;;;;;;;31.32;43.88;98364.30;225247;1262;22578;-71
2023/07/05 12:42:05;;;;;;;5.90;3.80;;;;;;;31.35;43.05;98347.02;225303;1276;22544;-71
2023/07/05 12:47:14;;;;;;;5.20;4.70;;;;;;;31.41;43.51;98336.09;225436;1269;22631;-74
2023/07/05 12:52:30;;;;;;;5.40;4.60;;;;;;;31.57;43.62;98331.67;225513;1274;22540;-74
2023/07/05 12:57:33;;;;;;;5.50;4.40;;;;;;;31.76;42.97;98329.01;225330;1275;22540;-76
2023/07/05 13:02:36;;;;;;;5.20;4.70;;;;;;;31.67;42.24;98324.55;225481;1277;22543;-75
2023/07/05 13:07:42;;;;;;;5.10;4.60;;;;;;;31.36;42.21;98326.84;225342;1276;22547;-76
2023/07/05 13:13:24;;;;;;;6.00;4.70;;;;;;;31.42;43.43;98317.95;225469;1265;22590;-75
2023/07/05 13:18:29;;;;;;;8.10;4.50;;;;;;;31.74;42.74;98316.15;226016;1272;22556;-75
2023/07/05 13:23:31;;;;;;;9.10;5.10;;;;;;;31.86;42.27;98315.55;225555;1262;24225;-75
2023/07/05 13:28:35;;;;;;;7.50;5.40;;;;;;;32.09;42.78;98312.22;225371;1275;22548;-75
2023/07/05 13:33:37;;;;;;;6.30;4.60;;;;;;;32.00;41.65;98318.09;225240;1270;22597;-73
2023/07/05 13:38:39;;;;;;;6.90;5.20;;;;;;;31.64;42.00;98320.92;225465;1272;22585;-74
2023/07/05 13:43:42;;;;;;;6.40;4.80;;;;;;;31.40;42.77;98331.59;225385;1274;22555;-73
2023/07/05 13:48:52;;;;;;;6.60;4.50;;;;;;;31.12;43.60;98361.45;225221;1274;22602;-75
2023/07/05 13:53:56;;;;;;;10.80;5.20;;;;;;;30.35;48.39;98394.93;225269;1259;22536;-76
2023/07/05 13:59:08;;;;;;;7.40;4.10;;;;;;;28.28;51.23;98364.34;225419;1262;22612;-74
2023/07/05 14:04:19;;;;;;;9.10;4.60;;;;;;;26.47;52.62;98368.80;225192;1272;22565;-75
2023/07/05 14:09:54;;;;;;;6.20;4.10;;;;;;;25.14;54.20;98364.88;225202;1272;23160;-75
2023/07/05 14:14:59;;;;;;;5.10;4.30;;;;;;;24.04;55.84;98373.33;225211;1281;23242;-75
2023/07/05 14:20:41;;;;;;;;;;;;;;;23.32;56.51;98371.71;225507;1281;22553;-75
2023/07/05 14:26:12;;;;;;;4.40;3.20;;;;;;;22.64;57.57;98346.42;225258;1273;22554;-75
2023/07/05 14:32:05;;;;;;;4.70;3.00;;;;;;;22.13;58.95;98341.82;225447;1283;24214;-74
2023/07/05 14:37:38;;;;;;;6.30;3.70;;;;;;;21.91;62.64;98350.83;225428;1282;24223;-75
2023/07/05 14:43:12;;;;;;;4.90;3.70;;;;;;;21.75;64.13;98359.03;225386;1283;24664;-77
2023/07/05 14:48:39;;;;;;;5.40;3.90;;;;;;;21.72;65.46;98345.69;225425;1281;22600;-75
2023/07/05 14:53:55;;;;;;;7.30;4.40;;;;;;;21.76;65.87;98314.06;225698;1281;22549;-75
2023/07/05 14:58:58;;;;;;;7.40;4.30;;;;;;;22.01;66.78;98296.31;225585;1281;22529;-75
2023/07/05 15:04:02;;;;;;;5.60;4.10;;;;;;;22.61;67.61;98277.71;225681;1281;22544;-76
2023/07/05 15:09:49;;;;;;;5.90;3.90;;;;;;;23.28;67.87;98273.92;225556;1281;22571;-74
2023/07/05 15:15:56;;;;;;;8.90;4.00;;;;;;;24.04;67.47;98292.89;225721;1281;22540;-74
2023/07/05 15:21:20;;;;;;;7.80;4.30;;;;;;;24.37;65.57;98306.69;225706;1265;22557;-74
2023/07/05 15:26:44;;;;;;;5.10;3.60;;;;;;;24.65;64.48;98311.66;225743;1281;22559;-74
2023/07/05 15:31:55;;;;;;;4.40;4.00;;;;;;;24.97;63.83;98314.10;225794;1278;22548;-74
2023/07/05 15:37:12;;;;;;;5.50;3.70;;;;;;;25.24;63.19;98324.55;225675;1275;22528;-75
2023/07/05 15:42:19;;;;;;;6.80;5.30;;;;;;;25.24;62.41;98330.02;225593;1280;22555;-75
2023/07/05 15:47:45;;;;;;;;;;;;;;;25.31;62.28;98326.02;225678;1281;24230;-75
2023/07/05 15:52:50;;;;;;;3.80;3.40;;;;;;;25.50;62.03;98322.63;225740;1279;22527;-75
2023/07/05 15:58:19;;;;;;;7.70;4.40;;;;;;;25.82;61.66;98317.67;225589;1280;22543;-75
2023/07/05 16:03:22;;;;;;;6.30;4.70;;;;;;;26.06;61.04;98306.44;225639;1275;22552;-75
2023/07/05 16:08:25;;;;;;;5.20;4.70;;;;;;;26.08;60.73;98299.91;225714;1268;24304;-76
2023/07/05 16:13:36;;;;;;;5.10;3.90;;;;;;;25.90;60.10;98282.75;225654;1261;23591;-76
2023/07/05 16:18:47;;;;;;;5.80;4.60;;;;;;;25.74;59.87;98287.06;225745;1272;22536;-76
2023/07/05 16:23:53;;;;;;;8.10;4.10;;;;;;;25.59;60.15;98289.52;225661;1269;22548;-76
2023/07/05 16:29:06;;;;;;;6.20;4.60;;;;;;;25.35;60.50;98285.54;225524;1278;24252;-72
2023/07/05 16:34:32;;;;;;;6.60;4.40;;;;;;;25.09;60.93;98318.04;225460;1280;22936;-78
2023/07/05 16:39:56;;;;;;;6.00;4.40;;;;;;;24.87;61.21;98366.23;225632;1280;22643;-78
2023/07/05 16:45:06;;;;;;;6.30;4.40;;;;;;;24.61;61.56;98413.20;225594;1278;22512;-78
2023/07/05 16:50:21;;;;;;;6.00;5.10;;;;;;;24.38;62.30;98413.19;225726;1280;22555;-78
2023/07/05 16:56:04;;;;;;;4.80;3.80;;;;;;;24.30;62.55;98402.10;225769;1280;22557;-78
2023/07/05 17:01:20;;;;;;;5.20;3.70;;;;;;;24.24;61.58;98407.23;225837;1275;22547;-78
2023/07/05 17:07:33;;;;;;;;;;;;;;;;;;;;;
2023/07/05 17:12:57;;;;;;;4.70;3.20;;;;;;;24.23;61.32;98415.75;225888;1275;22539;-78
2023/07/05 17:18:02;;;;;;;4.40;3.80;;;;;;;23.98;61.38;98451.44;225876;1280;22571;-78
2023/07/05 17:23:27;;;;;;;;;;;;;;;;;;;;;
2023/07/05 17:29:30;;;;;;;4.10;3.10;;;;;;;23.33;62.14;98469.89;225830;1280;22615;-77
2023/07/05 17:34:56;;;;;;;5.20;3.60;;;;;;;23.05;62.77;98485.58;225828;1280;23263;-78
2023/07/05 17:40:02;;;;;;;5.00;3.20;;;;;;;22.78;63.89;98494.27;225744;1279;22547;-77
2023/07/05 17:45:27;;;;;;;5.90;3.30;;;;;;;22.53;64.67;98494.10;225825;1280;22534;-77
2023/07/05 17:50:56;;;;;;;5.20;2.90;;;;;;;22.36;65.28;98495.90;225904;1280;22584;-78
2023/07/05 17:56:08;;;;;;;4.00;3.00;;;;;;;22.07;66.02;98506.40;225910;1280;22584;-77
2023/07/05 18:01:37;;;;;;;4.40;3.00;;;;;;;21.73;67.00;98520.55;225827;1280;23463;-77
2023/07/05 18:07:03;;;;;;;4.50;2.90;;;;;;;21.46;67.61;98511.04;225811;1280;22919;-77
2023/07/05 18:12:10;;;;;;;4.30;3.60;;;;;;;21.19;68.33;98504.16;225750;1271;22669;-77
2023/07/05 18:17:12;;;;;;;4.10;3.20;;;;;;;21.00;68.92;98499.45;225739;1280;22551;-77
2023/07/05 18:22:15;;;;;;;3.70;3.40;;;;;;;20.84;69.28;98495.94;221807;1278;5416069;-76
2023/07/05 18:27:31;;;;;;;4.20;3.30;;;;;;;20.69;69.63;98490.86;225723;1279;22589;-77
2023/07/05 18:32:41;;;;;;;4.90;3.20;;;;;;;20.58;69.96;98475.13;225842;1278;22547;-77
2023/07/05 18:38:15;;;;;;;;;;;;;;;;;;;;;
2023/07/05 18:44:38;;;;;;;4.70;3.30;;;;;;;20.28;71.18;98472.23;225845;1280;22536;-77
2023/07/05 18:50:31;;;;;;;4.70;3.10;;;;;;;20.10;72.18;98481.80;225915;1280;22657;-77
2023/07/05 18:55:37;;;;;;;5.60;3.20;;;;;;;19.91;72.48;98483.04;225828;1278;22666;-77
2023/07/05 19:00:40;;;;;;;4.80;3.10;;;;;;;19.73;72.87;98492.60;225832;1278;22619;-77
2023/07/05 19:05:43;;;;;;;4.20;3.00;;;;;;;19.63;73.13;98500.85;225904;1275;22544;-78
2023/07/05 19:10:46;;;;;;;5.90;3.20;;;;;;;19.57;73.44;98505.73;225868;1280;22556;-77
2023/07/05 19:15:49;;;;;;;5.50;3.10;;;;;;;19.50;73.72;98522.41;225803;1280;22552;-77
2023/07/05 19:20:57;;;;;;;5.70;3.30;;;;;;;19.44;73.92;98531.98;225810;1278;23332;-77
2023/07/05 19:26:02;;;;;;;5.80;3.70;;;;;;;19.32;74.07;98540.65;225860;1279;23201;-77
2023/07/05 19:31:10;;;;;;;5.80;3.90;;;;;;;19.21;74.56;98552.83;225918;1275;22537;-77
2023/07/05 19:36:19;;;;;;;8.00;5.00;;;;;;;19.07;74.87;98547.30;225962;1278;22533;-77
2023/07/05 19:41:23;;;;;;;9.50;5.50;;;;;;;18.95;75.35;98541.52;225842;1278;22555;-78
2023/07/05 19:46:25;;;;;;;5.80;4.90;;;;;;;18.86;75.81;98538.83;225821;1278;22552;-78
2023/07/05 19:51:31;;;;;;;6.70;5.00;;;;;;;18.77;76.34;98542.66;225800;1280;24223;-77
2023/07/05 19:56:33;;;;;;;5.80;4.30;;;;;;;18.69;76.67;98546.67;225694;1280;25392;-77
2023/07/05 20:01:52;;;;;;;7.80;4.60;;;;;;;18.59;77.11;98556.90;225984;1280;22548;-77
2023/07/05 20:06:59;;;;;;;7.20;5.00;;;;;;;18.51;77.59;98554.36;225791;1278;24424;-77
2023/07/05 20:12:01;;;;;;;8.10;4.90;;;;;;;18.41;77.74;98544.02;225898;1278;22581;-77
2023/07/05 20:17:09;;;;;;;6.20;4.80;;;;;;;18.33;78.13;98547.02;225871;1280;22537;-77
2023/07/05 20:22:12;;;;;;;8.80;5.50;;;;;;;18.26;78.33;98548.71;225991;1280;22533;-77
2023/07/05 20:27:30;;;;;;;7.20;4.90;;;;;;;18.18;78.57;98547.52;225881;1280;22547;-78
2023/07/05 20:32:33;;;;;;;8.90;5.10;;;;;;;18.10;78.94;98547.29;225805;1280;22540;-77
2023/07/05 20:37:39;;;;;;;7.90;5.00;;;;;;;18.08;79.27;98556.33;225783;1280;22595;-77
2023/07/05 20:42:52;;;;;;;9.00;5.40;;;;;;;18.07;79.37;98573.91;225835;1280;22524;-77
2023/07/05 20:48:00;;;;;;;6.90;5.20;;;;;;;18.05;79.63;98577.40;225819;1280;22554;-77
2023/07/05 20:53:04;;;;;;;8.70;5.60;;;;;;;18.03;79.84;98584.11;225941;1280;22561;-77
2023/07/05 20:58:10;;;;;;;8.30;5.50;;;;;;;18.02;79.98;98586.91;225774;1280;22563;-77
2023/07/05 21:03:16;;;;;;;9.00;5.90;;;;;;;17.99;80.18;98587.73;225914;1278;22535;-77
2023/07/05 21:08:25;;;;;;;9.00;6.60;;;;;;;17.96;80.48;98599.75;225848;1278;26048;-77
2023/07/05 21:13:51;;;;;;;10.40;6.30;;;;;;;17.93;80.49;98609.44;225916;1257;22573;-77
2023/07/05 21:19:24;;;;;;;7.50;6.10;;;;;;;17.90;80.72;98602.49;225763;1266;22547;-78
2023/07/05 21:24:47;;;;;;;9.70;6.60;;;;;;;17.88;80.90;98609.61;225795;1278;22544;-78
2023/07/05 21:30:30;;;;;;;9.30;6.60;;;;;;;17.84;80.98;98609.20;226146;1279;22550;-77
2023/07/05 21:35:38;;;;;;;8.90;6.60;;;;;;;17.81;81.17;98615.73;225937;1279;22533;-77
2023/07/05 21:40:41;;;;;;;8.10;5.80;;;;;;;17.77;81.31;98619.20;225956;1279;22568;-77
2023/07/05 21:45:44;;;;;;;7.20;5.60;;;;;;;17.74;81.25;98621.27;226108;1276;22540;-77
2023/07/05 21:51:44;;;;;;;;;;;;;;;;;;;;;
2023/07/05 21:57:59;;;;;;;9.10;6.10;;;;;;;17.66;81.59;98638.69;225901;1280;22569;-77
2023/07/05 22:04:13;;;;;;;;;;;;;;;;;;;;;
2023/07/05 22:09:35;;;;;;;19.20;8.50;;;;;;;17.57;81.79;98646.27;225871;1280;22525;-77
2023/07/05 22:14:52;;;;;;;10.10;6.70;;;;;;;17.50;82.07;98657.25;225924;1280;22545;-77
2023/07/05 22:20:49;;;;;;;;;;;;;;;;;;;;;
2023/07/05 22:32:59;;;;;;;10.10;7.30;;;;;;;17.35;82.66;98671.18;225790;1280;22524;-78
2023/07/05 22:38:47;;;;;;;8.90;6.70;;;;;;;17.32;82.73;98673.52;225841;1279;22540;-77
2023/07/05 22:44:30;;;;;;;8.80;6.40;;;;;;;17.30;82.88;98673.91;225789;1280;22557;-76
2023/07/05 22:49:34;;;;;;;10.40;6.90;;;;;;;17.29;83.22;98677.00;225408;1283;24336;-76
2023/07/05 22:55:21;;;;;;;9.50;7.60;;;;;;;17.29;83.24;98682.38;225392;1283;24248;-77
2023/07/05 23:00:33;;;;;;;9.90;7.00;;;;;;;17.29;83.40;98680.56;225431;1273;22545;-77
2023/07/05 23:05:35;;;;;;;9.10;6.60;;;;;;;17.27;83.30;98672.09;225402;1283;22541;-77
2023/07/05 23:11:10;;;;;;;9.30;7.10;;;;;;;17.24;83.24;98669.83;225401;1283;22742;-76
2023/07/05 23:16:24;;;;;;;10.10;6.90;;;;;;;17.20;83.45;98673.42;225454;1284;22571;-76
2023/07/05 23:21:50;;;;;;;11.00;7.30;;;;;;;17.14;83.42;98669.83;225842;1280;22564;-76
2023/07/05 23:27:26;;;;;;;9.70;6.90;;;;;;;17.08;83.52;98671.28;225998;1280;22866;-77
2023/07/05 23:33:09;;;;;;;;;;;;;;;;;;;;;
2023/07/05 23:38:51;;;;;;;10.40;7.40;;;;;;;16.94;83.64;98679.29;225982;1279;22528;-76
2023/07/05 23:43:55;;;;;;;9.80;7.60;;;;;;;16.87;83.68;98672.39;225812;1269;22551;-78
2023/07/05 23:49:23;;;;;;;9.70;7.90;;;;;;;16.80;83.92;98669.98;225748;1280;23469;-76
2023/07/05 23:55:04;;;;;;;11.30;8.10;;;;;;;16.77;84.15;98677.65;225947;1280;22546;-76
